createdAt,value
2019-03-27T00:01:42.887Z,99529.70
2019-03-27T00:04:17.460Z,99520.94
2019-03-27T00:06:51.885Z,99529.95
2019-03-27T00:09:26.351Z,99524.72
2019-03-27T00:12:00.765Z,99526.91
2019-03-27T00:14:35.403Z,99530.77
2019-03-27T00:17:09.814Z,99531.84
2019-03-27T00:19:44.328Z,99547.23
2019-03-27T00:22:19.028Z,99547.50
2019-03-27T00:24:53.517Z,99542.53
2019-03-27T00:27:29.090Z,99553.51
2019-03-27T00:30:03.611Z,99560.11
2019-03-27T00:32:39.287Z,99563.62
2019-03-27T00:35:14.558Z,99571.05
2019-03-27T00:37:49.129Z,99571.30
2019-03-27T00:40:23.767Z,99574.06
2019-03-27T00:42:58.478Z,99572.94
2019-03-27T00:45:33.104Z,99581.17
2019-03-27T00:48:07.750Z,99578.98
2019-03-27T00:50:42.236Z,99586.67
2019-03-27T00:53:16.930Z,99579.49
2019-03-27T00:55:51.775Z,99585.55
2019-03-27T00:58:26.190Z,99593.47
2019-03-27T01:01:12.076Z,99601.45
2019-03-27T01:03:46.940Z,99602.83
2019-03-27T01:06:21.382Z,99612.69
2019-03-27T01:08:56.267Z,99614.06
2019-03-27T01:11:30.981Z,99626.42
2019-03-27T01:14:05.705Z,99623.92
2019-03-27T01:16:40.311Z,99625.82
2019-03-27T01:19:14.711Z,99639.25
2019-03-27T01:21:49.251Z,99646.94
2019-03-27T01:24:23.823Z,99637.58
2019-03-27T01:26:58.354Z,99643.67
2019-03-27T01:29:32.878Z,99645.56
2019-03-27T01:32:07.576Z,99650.53
2019-03-27T01:34:42.105Z,99652.20
2019-03-27T01:37:16.735Z,99658.25
2019-03-27T01:39:51.280Z,99659.63
2019-03-27T01:42:26.093Z,99672.80
2019-03-27T01:45:00.714Z,99674.47
2019-03-27T01:47:35.401Z,99685.45
2019-03-27T01:50:11.138Z,99690.39
2019-03-27T01:52:45.482Z,99689.88
2019-03-27T01:55:20.062Z,99699.19
2019-03-27T01:57:54.594Z,99696.44
2019-03-27T02:00:28.950Z,99696.14
2019-03-27T02:03:03.645Z,99695.06
2019-03-27T02:05:38.056Z,99695.37
2019-03-27T02:08:12.592Z,99696.44
2019-03-27T02:10:47.356Z,99693.14
2019-03-27T02:13:22.249Z,99693.70
2019-03-27T02:16:06.879Z,99696.14
2019-03-27T02:18:33.481Z,99696.36
2019-03-27T02:21:08.392Z,99697.42
2019-03-27T02:23:42.842Z,99693.61
2019-03-27T02:26:17.571Z,99696.91
2019-03-27T02:28:52.399Z,99696.91
2019-03-27T02:31:26.833Z,99694.47
2019-03-27T02:34:01.370Z,99694.98
2019-03-27T02:36:35.803Z,99699.35
2019-03-27T02:39:10.276Z,99699.35
2019-03-27T02:41:45.160Z,99706.22
2019-03-27T02:44:19.766Z,99707.29
2019-03-27T02:46:54.590Z,99708.91
2019-03-27T02:49:29.235Z,99715.77
2019-03-27T02:52:04.030Z,99716.89
2019-03-27T02:54:38.786Z,99715.77
2019-03-27T02:57:13.385Z,99719.34
2019-03-27T02:59:47.929Z,99717.70
2019-03-27T03:02:22.700Z,99721.27
2019-03-27T03:04:57.361Z,99721.52
2019-03-27T03:07:31.963Z,99722.06
2019-03-27T03:10:07.234Z,99715.72
2019-03-27T03:12:41.855Z,99722.58
2019-03-27T03:15:22.897Z,99720.14
2019-03-27T03:17:57.297Z,99720.64
2019-03-27T03:20:31.999Z,99720.94
2019-03-27T03:23:06.505Z,99725.58
2019-03-27T03:25:41.419Z,99730.25
2019-03-27T03:28:16.082Z,99727.50
2019-03-27T03:30:50.753Z,99730.25
2019-03-27T03:33:26.415Z,99731.31
2019-03-27T03:36:00.956Z,99728.57
2019-03-27T03:38:35.410Z,99739.00
2019-03-27T03:41:09.946Z,99743.98
2019-03-27T03:43:44.603Z,99738.19
2019-03-27T03:46:19.166Z,99740.11
2019-03-27T03:48:53.891Z,99744.74
2019-03-27T03:51:28.512Z,99743.38
2019-03-27T03:54:03.828Z,99739.25
2019-03-27T03:56:40.974Z,99742.25
2019-03-27T03:59:16.857Z,99751.85
2019-03-27T04:01:53.380Z,99753.78
2019-03-27T04:04:28.228Z,99752.41
2019-03-27T04:07:02.730Z,99758.97
2019-03-27T04:09:37.288Z,99757.29
2019-03-27T04:12:11.843Z,99761.19
2019-03-27T04:14:46.592Z,99751.80
2019-03-27T04:17:21.151Z,99748.23
2019-03-27T04:19:55.544Z,99742.74
2019-03-27T04:22:30.046Z,99753.17
2019-03-27T04:25:04.544Z,99750.97
2019-03-27T04:28:24.839Z,99747.92
2019-03-27T04:30:59.315Z,99753.72
2019-03-27T04:33:33.677Z,99750.97
2019-03-27T04:36:08.457Z,99752.59
2019-03-27T04:38:42.950Z,99751.22
2019-03-27T04:41:17.537Z,99751.53
2019-03-27T04:43:52.090Z,99750.92
2019-03-27T04:46:26.739Z,99752.30
2019-03-27T04:49:01.306Z,99745.43
2019-03-27T04:51:35.898Z,99751.47
2019-03-27T04:54:10.324Z,99745.43
2019-03-27T04:56:44.677Z,99747.36
2019-03-27T04:59:19.235Z,99743.23
2019-03-27T05:01:54.206Z,99745.16
2019-03-27T05:04:29.557Z,99744.06
2019-03-27T05:07:04.004Z,99746.53
2019-03-27T05:09:38.696Z,99746.23
2019-03-27T05:12:13.197Z,99751.47
2019-03-27T05:14:47.633Z,99748.97
2019-03-27T05:17:22.082Z,99751.72
2019-03-27T05:19:57.619Z,99743.54
2019-03-27T05:22:32.300Z,99744.30
2019-03-27T05:25:07.714Z,99741.56
2019-03-27T05:27:42.255Z,99745.16
2019-03-27T05:30:18.101Z,99743.18
2019-03-27T05:32:52.661Z,99744.30
2019-03-27T05:35:27.177Z,99735.00
2019-03-27T05:38:02.039Z,99733.87
2019-03-27T05:40:36.495Z,99736.32
2019-03-27T05:43:11.152Z,99728.14
2019-03-27T05:45:45.951Z,99726.77
2019-03-27T05:48:20.661Z,99721.83
2019-03-27T05:50:56.502Z,99724.27
2019-03-27T05:53:32.118Z,99720.67
2019-03-27T05:56:07.164Z,99720.45
2019-03-27T05:58:41.729Z,99711.37
2019-03-27T06:01:16.396Z,99719.08
2019-03-27T06:03:51.883Z,99713.59
2019-03-27T06:06:26.752Z,99705.88
2019-03-27T06:09:01.240Z,99707.80
2019-03-27T06:11:37.401Z,99704.75
2019-03-27T06:14:12.093Z,99700.94
2019-03-27T06:16:46.777Z,99702.31
2019-03-27T06:19:21.268Z,99694.08
2019-03-27T06:21:56.780Z,99688.59
2019-03-27T06:24:32.674Z,99683.92
2019-03-27T06:27:07.213Z,99680.35
2019-03-27T06:29:41.933Z,99677.61
2019-03-27T06:32:16.826Z,99671.05
2019-03-27T06:34:51.423Z,99664.19
2019-03-27T06:37:25.928Z,99661.71
2019-03-27T06:40:02.163Z,99658.97
2019-03-27T06:42:41.317Z,99654.84
2019-03-27T06:45:17.776Z,99644.12
2019-03-27T06:47:53.015Z,99648.53
2019-03-27T06:50:28.000Z,99643.34
2019-03-27T06:53:02.831Z,99633.44
2019-03-27T06:55:37.810Z,99632.89
2019-03-27T06:58:12.557Z,99619.72
2019-03-27T07:00:47.164Z,99624.13
2019-03-27T07:03:21.941Z,99623.28
2019-03-27T07:05:56.910Z,99627.40
2019-03-27T07:08:31.442Z,99624.95
2019-03-27T07:11:06.517Z,99626.33
2019-03-27T07:13:41.310Z,99615.34
2019-03-27T07:16:16.085Z,99615.09
2019-03-27T07:18:50.829Z,99609.30
2019-03-27T07:21:25.534Z,99601.38
2019-03-27T07:24:00.423Z,99596.70
2019-03-27T07:26:35.196Z,99594.51
2019-03-27T07:29:09.965Z,99585.45
2019-03-27T07:31:44.570Z,99588.47
2019-03-27T07:34:20.191Z,99587.09
2019-03-27T07:36:56.315Z,99576.12
2019-03-27T07:39:30.856Z,99571.48
2019-03-27T07:42:05.345Z,99570.92
2019-03-27T07:44:40.715Z,99563.55
2019-03-27T07:47:15.576Z,99560.25
2019-03-27T07:49:50.358Z,99553.38
2019-03-27T07:52:24.973Z,99557.25
2019-03-27T07:54:59.679Z,99541.33
2019-03-27T07:57:34.346Z,99536.66
2019-03-27T08:00:10.203Z,99529.55
2019-03-27T08:02:46.221Z,99523.23
2019-03-27T08:05:20.716Z,99517.19
2019-03-27T08:07:55.575Z,99515.27
2019-03-27T08:10:30.393Z,99514.75
2019-03-27T08:13:05.121Z,99506.80
2019-03-27T08:15:40.973Z,99499.09
2019-03-27T08:18:15.807Z,99496.91
2019-03-27T08:20:50.293Z,99492.53
2019-03-27T08:23:24.652Z,99483.99
2019-03-27T08:25:59.315Z,99487.86
2019-03-27T08:28:33.834Z,99486.78
2019-03-27T08:31:08.588Z,99483.48
2019-03-27T08:33:43.662Z,99478.55
2019-03-27T08:36:18.345Z,99474.73
2019-03-27T08:38:53.153Z,99465.94
2019-03-27T08:41:28.219Z,99458.52
2019-03-27T08:44:04.135Z,99453.03
2019-03-27T08:46:39.903Z,99447.84
2019-03-27T08:49:21.661Z,99445.94
2019-03-27T08:51:50.534Z,99431.92
2019-03-27T08:54:25.228Z,99434.41
2019-03-27T08:57:00.306Z,99433.03
2019-03-27T08:59:34.930Z,99435.52
2019-03-27T09:02:09.642Z,99423.42
2019-03-27T09:04:44.376Z,99436.37
2019-03-27T09:07:18.933Z,99430.88
2019-03-27T09:09:53.514Z,99426.24
2019-03-27T09:12:28.142Z,99420.20
2019-03-27T09:15:02.868Z,99407.02
2019-03-27T09:17:37.650Z,99411.96
2019-03-27T09:20:13.006Z,99412.78
2019-03-27T09:22:47.669Z,99410.03
2019-03-27T09:25:22.212Z,99415.00
2019-03-27T09:27:56.812Z,99402.39
2019-03-27T09:30:31.527Z,99407.33
2019-03-27T09:33:06.365Z,99403.50
2019-03-27T09:35:41.521Z,99392.23
2019-03-27T09:38:16.654Z,99389.48
2019-03-27T09:40:51.471Z,99391.15
2019-03-27T09:43:26.489Z,99390.08
2019-03-27T09:46:01.008Z,99385.66
2019-03-27T09:48:35.469Z,99384.84
2019-03-27T09:51:10.143Z,99379.09
2019-03-27T09:53:44.981Z,99379.36
2019-03-27T09:56:19.813Z,99371.41
2019-03-27T09:58:54.542Z,99370.86
2019-03-27T10:01:29.214Z,99363.17
2019-03-27T10:04:03.708Z,99371.16
2019-03-27T10:06:38.367Z,99362.39
2019-03-27T10:09:13.678Z,99367.33
2019-03-27T10:11:48.217Z,99364.59
2019-03-27T10:14:22.791Z,99359.91
2019-03-27T10:16:57.582Z,99351.16
2019-03-27T10:19:32.455Z,99364.33
2019-03-27T10:22:07.354Z,99360.50
2019-03-27T10:24:44.452Z,99359.13
2019-03-27T10:27:18.744Z,99352.53
2019-03-27T10:29:53.374Z,99348.41
2019-03-27T10:32:28.290Z,99345.14
2019-03-27T10:35:03.549Z,99344.59
2019-03-27T10:37:38.386Z,99343.51
2019-03-27T10:40:12.935Z,99345.17
2019-03-27T10:42:47.675Z,99347.92
2019-03-27T10:45:22.329Z,99346.81
2019-03-27T10:47:56.905Z,99343.55
2019-03-27T10:50:31.571Z,99352.30
2019-03-27T10:53:06.254Z,99347.11
2019-03-27T10:55:40.775Z,99348.78
2019-03-27T10:58:15.502Z,99349.07
2019-03-27T11:00:50.217Z,99345.48
2019-03-27T11:03:24.561Z,99348.81
2019-03-27T11:05:59.085Z,99347.44
2019-03-27T11:08:33.613Z,99353.20
2019-03-27T11:11:08.190Z,99345.52
2019-03-27T11:13:42.741Z,99351.56
2019-03-27T11:16:17.436Z,99354.31
2019-03-27T11:18:52.229Z,99350.48
2019-03-27T11:21:26.958Z,99349.11
2019-03-27T11:24:01.751Z,99353.52
2019-03-27T11:26:37.532Z,99357.94
2019-03-27T11:29:12.552Z,99349.70
2019-03-27T11:31:49.105Z,99354.08
2019-03-27T11:34:23.812Z,99348.06
2019-03-27T11:36:58.299Z,99344.77
2019-03-27T11:39:32.986Z,99344.77
2019-03-27T11:42:07.973Z,99343.98
2019-03-27T11:44:43.183Z,99339.86
2019-03-27T11:47:18.027Z,99342.61
2019-03-27T11:49:52.761Z,99347.84
2019-03-27T11:52:29.663Z,99353.07
2019-03-27T11:55:04.158Z,99358.01
2019-03-27T11:57:38.845Z,99348.39
2019-03-27T12:00:14.495Z,99350.59
2019-03-27T12:02:49.254Z,99348.43
2019-03-27T12:05:24.380Z,99357.23
2019-03-27T12:07:58.862Z,99352.55
2019-03-27T12:10:33.679Z,99354.48
2019-03-27T12:13:08.686Z,99356.70
2019-03-27T12:15:47.499Z,99362.46
2019-03-27T12:18:22.274Z,99360.27
2019-03-27T12:20:59.788Z,99364.69
2019-03-27T12:23:34.734Z,99364.12
2019-03-27T12:26:09.470Z,99370.21
2019-03-27T12:28:44.104Z,99369.10
2019-03-27T12:31:18.625Z,99366.09
2019-03-27T12:33:53.345Z,99371.88
2019-03-27T12:36:27.982Z,99376.00
2019-03-27T12:39:02.663Z,99376.82
2019-03-27T12:41:37.712Z,99384.54
2019-03-27T12:44:12.484Z,99381.53
2019-03-27T12:46:47.030Z,99379.34
2019-03-27T12:49:21.365Z,99385.39
2019-03-27T12:51:56.052Z,99381.27
2019-03-27T12:54:30.621Z,99391.19
2019-03-27T12:57:05.151Z,99389.25
2019-03-27T12:59:40.076Z,99395.05
2019-03-27T13:02:14.802Z,99390.37
2019-03-27T13:04:49.398Z,99392.03
2019-03-27T13:07:23.963Z,99400.58
2019-03-27T13:09:58.499Z,99396.45
2019-03-27T13:12:32.990Z,99405.81
2019-03-27T13:15:07.959Z,99403.88
2019-03-27T13:17:42.538Z,99404.70
2019-03-27T13:20:17.596Z,99409.11
2019-03-27T13:22:52.277Z,99414.61
2019-03-27T13:25:26.723Z,99415.45
2019-03-27T13:28:01.265Z,99418.50
2019-03-27T13:30:36.012Z,99419.35
2019-03-27T13:33:10.561Z,99421.84
2019-03-27T13:35:45.074Z,99427.34
2019-03-27T13:38:20.006Z,99430.09
2019-03-27T13:40:54.799Z,99434.47
2019-03-27T13:43:29.341Z,99439.73
2019-03-27T13:46:04.093Z,99432.87
2019-03-27T13:48:38.824Z,99437.25
2019-03-27T13:51:13.380Z,99437.84
2019-03-27T13:53:48.282Z,99439.48
2019-03-27T13:56:22.960Z,99444.16
2019-03-27T13:58:57.599Z,99444.98
2019-03-27T14:01:32.186Z,99452.99
2019-03-27T14:04:06.926Z,99444.45
2019-03-27T14:06:44.567Z,99452.44
2019-03-27T14:09:17.854Z,99446.39
2019-03-27T14:11:52.450Z,99454.63
2019-03-27T14:14:27.016Z,99460.42
2019-03-27T14:17:01.679Z,99461.80
2019-03-27T14:19:36.312Z,99468.41
2019-03-27T14:22:11.026Z,99467.03
2019-03-27T14:24:45.433Z,99472.83
2019-03-27T14:27:19.923Z,99469.52
2019-03-27T14:29:54.649Z,99462.65
2019-03-27T14:32:29.528Z,99467.06
2019-03-27T14:35:04.264Z,99468.44
2019-03-27T14:37:39.265Z,99467.36
2019-03-27T14:40:13.925Z,99473.13
2019-03-27T14:42:48.759Z,99475.05
2019-03-27T14:45:23.354Z,99482.22
2019-03-27T14:47:58.190Z,99484.13
2019-03-27T14:50:32.787Z,99484.41
2019-03-27T14:53:07.400Z,99487.16
2019-03-27T14:55:41.912Z,99492.95
2019-03-27T14:58:16.575Z,99504.48
2019-03-27T15:00:51.273Z,99500.36
2019-03-27T15:03:25.670Z,99506.15
2019-03-27T15:06:00.333Z,99507.52
2019-03-27T15:08:35.096Z,99505.59
2019-03-27T15:11:09.912Z,99506.44
2019-03-27T15:13:44.457Z,99502.84
2019-03-27T15:16:19.129Z,99508.64
2019-03-27T15:18:53.405Z,99511.98
2019-03-27T15:21:27.683Z,99508.67
2019-03-27T15:24:02.301Z,99507.03
2019-03-27T15:26:36.721Z,99510.61
2019-03-27T15:29:11.381Z,99505.66
2019-03-27T15:31:46.031Z,99510.38
2019-03-27T15:34:20.798Z,99515.58
2019-03-27T15:36:55.202Z,99510.90
2019-03-27T15:39:30.118Z,99505.95
2019-03-27T15:42:04.761Z,99510.38
2019-03-27T15:44:39.226Z,99504.87
2019-03-27T15:47:13.687Z,99506.81
2019-03-27T15:49:48.047Z,99508.48
2019-03-27T15:52:35.426Z,99511.49
2019-03-27T15:54:58.753Z,99504.91
2019-03-27T15:57:33.131Z,99508.74
2019-03-27T16:00:07.898Z,99504.91
2019-03-27T16:02:42.703Z,99501.08
2019-03-27T16:05:17.168Z,99501.90
2019-03-27T16:07:52.077Z,99501.94
2019-03-27T16:10:26.807Z,99504.98
2019-03-27T16:13:01.461Z,99510.19
2019-03-27T16:15:37.182Z,99506.61
2019-03-27T16:18:11.896Z,99509.40
2019-03-27T16:20:46.567Z,99514.64
2019-03-27T16:23:21.222Z,99519.32
2019-03-27T16:25:56.016Z,99517.69
2019-03-27T16:28:30.456Z,99516.30
2019-03-27T16:31:05.264Z,99513.03
2019-03-27T16:33:39.900Z,99510.55
2019-03-27T16:36:14.390Z,99514.41
2019-03-27T16:38:48.820Z,99513.55
2019-03-27T16:41:23.451Z,99503.70
2019-03-27T16:43:58.063Z,99507.53
2019-03-27T16:46:32.978Z,99502.03
2019-03-27T16:49:07.975Z,99505.37
2019-03-27T16:51:42.469Z,99510.02
2019-03-27T16:54:16.965Z,99512.51
2019-03-27T16:56:51.462Z,99513.63
2019-03-27T16:59:26.010Z,99514.44
2019-03-27T17:02:01.204Z,99513.63
2019-03-27T17:04:35.578Z,99519.38
2019-03-27T17:07:10.146Z,99520.50
2019-03-27T17:09:44.560Z,99524.62
2019-03-27T17:12:19.235Z,99520.50
2019-03-27T17:14:53.846Z,99522.98
2019-03-27T17:17:28.347Z,99526.27
2019-03-27T17:20:02.966Z,99530.39
2019-03-27T17:22:37.441Z,99525.44
2019-03-27T17:25:12.152Z,99527.64
2019-03-27T17:27:46.681Z,99527.38
2019-03-27T17:30:21.691Z,99527.38
2019-03-27T17:32:56.310Z,99527.11
2019-03-27T17:35:30.774Z,99527.38
2019-03-27T17:38:05.194Z,99527.64
2019-03-27T17:40:39.787Z,99524.62
2019-03-27T17:43:14.184Z,99521.28
2019-03-27T17:45:48.613Z,99526.52
2019-03-27T17:48:22.999Z,99521.02
2019-03-27T17:50:57.669Z,99524.33
2019-03-27T17:53:32.345Z,99527.08
2019-03-27T17:56:07.078Z,99527.08
2019-03-27T17:58:42.190Z,99526.00
2019-03-27T18:01:16.528Z,99529.53
2019-03-27T18:03:51.038Z,99533.14
2019-03-27T18:06:25.340Z,99529.02
2019-03-27T18:08:59.995Z,99530.39
2019-03-27T18:11:34.430Z,99530.91
2019-03-27T18:14:08.962Z,99532.84
2019-03-27T18:16:44.251Z,99527.05
2019-03-27T18:19:18.699Z,99537.78
2019-03-27T18:22:06.690Z,99528.42
2019-03-27T18:24:29.515Z,99531.44
2019-03-27T18:27:04.274Z,99529.53
2019-03-27T18:29:39.057Z,99519.88
2019-03-27T18:32:14.186Z,99527.02
2019-03-27T18:34:49.501Z,99523.45
2019-03-27T18:37:24.005Z,99523.15
2019-03-27T18:39:58.521Z,99526.20
2019-03-27T18:42:33.289Z,99523.45
2019-03-27T18:45:08.067Z,99522.89
2019-03-27T18:47:42.731Z,99514.90
2019-03-27T18:50:17.271Z,99522.59
2019-03-27T18:52:51.987Z,99517.65
2019-03-27T18:55:27.195Z,99513.27
2019-03-27T18:58:01.799Z,99508.84
2019-03-27T19:00:36.483Z,99508.25
2019-03-27T19:03:11.055Z,99506.35
2019-03-27T19:05:45.532Z,99504.42
2019-03-27T19:08:20.009Z,99503.60
2019-03-27T19:10:55.518Z,99500.00
2019-03-27T19:13:30.016Z,99493.98
2019-03-27T19:16:04.372Z,99498.63
2019-03-27T19:18:38.769Z,99495.35
2019-03-27T19:21:13.398Z,99495.61
2019-03-27T19:23:47.936Z,99490.94
2019-03-27T19:26:22.485Z,99486.52
2019-03-27T19:28:56.771Z,99482.69
2019-03-27T19:31:31.326Z,99481.02
2019-03-27T19:34:06.004Z,99478.27
2019-03-27T19:36:40.666Z,99472.27
2019-03-27T19:39:15.243Z,99462.06
2019-03-27T19:41:49.914Z,99462.64
2019-03-27T19:44:24.420Z,99460.98
2019-03-27T19:47:00.687Z,99458.23
2019-03-27T19:49:35.029Z,99453.81
2019-03-27T19:52:09.611Z,99455.48
2019-03-27T19:54:44.160Z,99451.91
2019-03-27T19:57:18.665Z,99450.27
2019-03-27T19:59:53.957Z,99442.02
2019-03-27T20:02:28.475Z,99432.39
2019-03-27T20:05:03.020Z,99429.64
2019-03-27T20:07:37.898Z,99436.52
2019-03-27T20:10:13.172Z,99427.42
2019-03-27T20:12:47.620Z,99422.48
2019-03-27T20:15:22.293Z,99415.61
2019-03-27T20:17:56.901Z,99412.30
2019-03-27T20:20:31.630Z,99411.45
2019-03-27T20:23:14.711Z,99412.00
2019-03-27T20:25:42.140Z,99406.77
2019-03-27T20:28:16.512Z,99405.69
2019-03-27T20:30:51.170Z,99397.14
2019-03-27T20:33:25.635Z,99399.63
2019-03-27T20:35:59.895Z,99393.02
2019-03-27T20:38:34.458Z,99395.51
2019-03-27T20:41:08.735Z,99395.77
2019-03-27T20:43:45.676Z,99387.78
2019-03-27T20:46:25.448Z,99389.45
2019-03-27T20:48:56.376Z,99389.72
2019-03-27T20:51:30.813Z,99386.97
2019-03-27T20:54:06.010Z,99381.47
2019-03-27T20:56:40.604Z,99381.17
2019-03-27T20:59:18.239Z,99385.03
2019-03-27T21:01:51.829Z,99382.28
2019-03-27T21:04:26.256Z,99373.22
2019-03-27T21:07:00.857Z,99371.02
2019-03-27T21:09:35.264Z,99367.42
2019-03-27T21:12:09.919Z,99368.51
2019-03-27T21:14:44.245Z,99371.55
2019-03-27T21:17:18.657Z,99364.38
2019-03-27T21:19:53.242Z,99363.27
2019-03-27T21:22:27.948Z,99362.19
2019-03-27T21:25:09.007Z,99360.26
2019-03-27T21:27:39.238Z,99360.26
2019-03-27T21:30:14.206Z,99353.38
2019-03-27T21:32:48.646Z,99351.19
2019-03-27T21:35:23.118Z,99353.13
2019-03-27T21:37:57.755Z,99351.45
2019-03-27T21:40:32.148Z,99346.77
2019-03-27T21:43:06.635Z,99340.72
2019-03-27T21:45:41.423Z,99338.79
2019-03-27T21:48:15.804Z,99334.95
2019-03-27T21:50:50.575Z,99333.30
2019-03-27T21:53:25.299Z,99326.42
2019-03-27T21:56:00.509Z,99327.53
2019-03-27T21:58:34.870Z,99326.16
2019-03-27T22:01:09.800Z,99331.36
2019-03-27T22:03:44.258Z,99326.95
2019-03-27T22:06:18.971Z,99331.36
2019-03-27T22:08:53.511Z,99330.52
2019-03-27T22:11:28.873Z,99330.25
2019-03-27T22:14:03.329Z,99329.41
2019-03-27T22:16:37.896Z,99330.78
2019-03-27T22:19:12.309Z,99331.34
2019-03-27T22:21:46.734Z,99331.89
2019-03-27T22:24:21.317Z,99334.64
2019-03-27T22:26:54.809Z,99328.85
2019-03-27T22:29:29.430Z,99327.48
2019-03-27T22:32:03.820Z,99327.48
2019-03-27T22:34:38.454Z,99330.78
2019-03-27T22:37:12.977Z,99328.01
2019-03-27T22:39:48.044Z,99329.64
2019-03-27T22:42:22.819Z,99336.25
2019-03-27T22:44:57.667Z,99333.50
2019-03-27T22:47:32.377Z,99340.11
2019-03-27T22:50:08.398Z,99340.38
2019-03-27T22:52:43.231Z,99341.46
2019-03-27T22:55:17.926Z,99347.22
2019-03-27T22:57:52.518Z,99350.79
2019-03-27T23:00:47.317Z,99352.16
2019-03-27T23:03:23.444Z,99343.66
2019-03-27T23:05:58.234Z,99346.11
2019-03-27T23:08:32.698Z,99342.25
2019-03-27T23:11:07.440Z,99346.64
2019-03-27T23:13:42.127Z,99345.00
2019-03-27T23:16:16.973Z,99353.25
2019-03-27T23:18:51.595Z,99350.77
2019-03-27T23:21:25.998Z,99359.83
2019-03-27T23:24:00.717Z,99360.38
2019-03-27T23:26:35.059Z,99361.47
2019-03-27T23:29:09.770Z,99363.92
2019-03-27T23:31:44.149Z,99360.09
2019-03-27T23:34:19.805Z,99363.66
2019-03-27T23:36:54.155Z,99360.91
2019-03-27T23:39:28.685Z,99365.56
2019-03-27T23:42:03.371Z,99366.12
2019-03-27T23:44:37.908Z,99371.05
2019-03-27T23:47:12.558Z,99372.69
2019-03-27T23:49:46.985Z,99376.81
2019-03-27T23:52:21.373Z,99377.63
2019-03-27T23:54:55.897Z,99378.45
2019-03-27T23:57:30.425Z,99385.88
